Time;durP1;ratioP1;P1;durP2;ratioP2;P2;SDS_P1;SDS_P2;PMS_P1;PMS_P2;Temp;Humidity;BMP_temperature;BMP_pressure;BME280_temperature;BME280_humidity;BME280_pressure;Samples;Min_cycle;Max_cycle;Signal;HPM_P1;HPM_P2
2021/05/24 00:00:49;;;;;;;4.77;3.70;;;12.40;99.90;;;;;;5004152;28;20457;-45
2021/05/24 00:03:16;;;;;;;4.00;3.30;;;12.40;99.90;;;;;;5008771;28;20905;-48
2021/05/24 00:05:43;;;;;;;4.80;3.87;;;12.40;99.90;;;;;;5002072;28;20450;-44
2021/05/24 00:08:09;;;;;;;4.50;4.10;;;12.40;99.90;;;;;;5004198;28;20445;-48
2021/05/24 00:10:38;;;;;;;4.50;3.90;;;12.50;99.90;;;;;;5006291;28;20516;-46
2021/05/24 00:13:06;;;;;;;6.17;3.47;;;12.50;99.90;;;;;;4999601;28;20478;-46
2021/05/24 00:15:35;;;;;;;6.00;3.77;;;12.40;99.90;;;;;;5004697;28;20500;-48
2021/05/24 00:18:01;;;;;;;6.23;4.57;;;12.50;99.90;;;;;;5003241;28;20453;-47
2021/05/24 00:20:31;;;;;;;5.37;3.60;;;12.50;99.90;;;;;;5004417;28;20456;-46
2021/05/24 00:22:57;;;;;;;2.97;2.73;;;12.40;99.90;;;;;;5007026;28;20495;-47
2021/05/24 00:25:24;;;;;;;4.67;3.37;;;12.40;99.90;;;;;;5003397;28;20794;-45
2021/05/24 00:27:50;;;;;;;4.50;3.77;;;12.40;99.90;;;;;;5003758;28;20769;-45
2021/05/24 00:30:18;;;;;;;4.23;3.83;;;12.40;99.90;;;;;;5005033;28;21643;-47
2021/05/24 00:32:45;;;;;;;4.00;3.60;;;12.40;99.90;;;;;;5003112;28;20473;-45
2021/05/24 00:35:12;;;;;;;3.90;3.33;;;12.40;99.90;;;;;;5003372;28;20475;-45
2021/05/24 00:37:39;;;;;;;5.83;3.70;;;12.40;99.90;;;;;;5005004;28;20826;-45
2021/05/24 00:40:09;;;;;;;4.00;3.27;;;12.40;99.90;;;;;;5003532;28;20454;-50
2021/05/24 00:42:36;;;;;;;3.47;2.90;;;12.30;99.90;;;;;;5002993;28;20939;-49
2021/05/24 00:45:04;;;;;;;4.47;3.40;;;12.40;99.90;;;;;;5002980;28;20449;-46
2021/05/24 00:47:31;;;;;;;5.77;3.50;;;12.40;99.90;;;;;;5003326;28;20444;-47
2021/05/24 00:49:57;;;;;;;4.00;3.47;;;12.40;99.90;;;;;;5004777;28;20452;-45
2021/05/24 00:52:23;;;;;;;4.40;3.30;;;12.40;99.90;;;;;;5001612;28;20493;-45
2021/05/24 00:54:50;;;;;;;5.47;3.80;;;12.30;99.90;;;;;;5005559;28;20458;-45
2021/05/24 00:57:17;;;;;;;4.23;3.83;;;12.30;99.90;;;;;;5003013;28;20454;-45
2021/05/24 00:59:43;;;;;;;7.30;5.60;;;12.30;99.90;;;;;;5002463;28;20453;-48
2021/05/24 01:02:09;;;;;;;5.13;4.10;;;12.30;99.90;;;;;;5003564;28;20812;-47
2021/05/24 01:04:35;;;;;;;5.40;4.50;;;12.20;99.90;;;;;;5002719;28;20457;-46
2021/05/24 01:07:04;;;;;;;5.10;4.00;;;12.20;99.90;;;;;;5004742;28;20500;-48
2021/05/24 01:09:33;;;;;;;7.20;4.90;;;12.10;99.90;;;;;;5003735;28;20438;-52
2021/05/24 01:12:01;;;;;;;8.00;3.70;;;12.10;99.90;;;;;;4999791;28;20478;-48
2021/05/24 01:14:27;;;;;;;4.93;4.37;;;12.10;99.90;;;;;;5000977;28;20449;-46
2021/05/24 01:16:55;;;;;;;4.63;4.00;;;12.10;99.90;;;;;;4999340;28;20457;-46
2021/05/24 01:19:22;;;;;;;4.87;3.80;;;12.10;99.90;;;;;;5006777;28;20789;-45
2021/05/24 01:21:49;;;;;;;5.63;4.17;;;12.10;99.90;;;;;;5005592;28;21064;-44
2021/05/24 01:24:18;;;;;;;4.77;4.17;;;12.10;99.90;;;;;;5007999;28;20446;-50
2021/05/24 01:26:44;;;;;;;4.80;3.47;;;12.00;99.90;;;;;;5006460;28;20448;-49
2021/05/24 01:29:11;;;;;;;3.77;3.37;;;12.00;99.90;;;;;;5006668;28;20927;-50
2021/05/24 01:31:37;;;;;;;4.33;3.50;;;11.90;99.90;;;;;;5008017;28;20481;-51
2021/05/24 01:34:04;;;;;;;4.57;3.90;;;11.90;99.90;;;;;;5005995;28;20473;-50
2021/05/24 01:36:31;;;;;;;4.50;3.23;;;11.90;99.90;;;;;;5006876;28;20453;-52
2021/05/24 01:38:58;;;;;;;4.20;3.83;;;11.90;99.90;;;;;;5007979;28;21743;-47
2021/05/24 01:41:24;;;;;;;4.27;3.73;;;11.90;99.90;;;;;;5005944;28;20457;-49
2021/05/24 01:43:50;;;;;;;4.37;3.97;;;11.90;99.90;;;;;;5006757;28;20456;-46
2021/05/24 01:46:17;;;;;;;3.83;3.43;;;11.90;99.90;;;;;;5007905;28;20458;-48
2021/05/24 01:48:43;;;;;;;4.40;3.97;;;11.90;99.90;;;;;;5005920;28;20468;-46
2021/05/24 01:51:10;;;;;;;5.07;3.63;;;12.00;99.90;;;;;;5008524;28;20468;-47
2021/05/24 01:53:37;;;;;;;4.43;3.47;;;12.00;99.90;;;;;;5005870;28;20499;-47
2021/05/24 01:56:05;;;;;;;4.20;3.50;;;11.90;99.90;;;;;;5005924;28;20442;-46
2021/05/24 01:58:31;;;;;;;6.10;3.90;;;11.90;99.90;;;;;;5006357;28;20452;-47
2021/05/24 02:01:02;;;;;;;3.83;3.43;;;11.90;99.90;;;;;;5004582;28;20454;-45
2021/05/24 02:03:29;;;;;;;5.07;3.83;;;11.90;99.90;;;;;;5005596;28;20434;-47
2021/05/24 02:05:55;;;;;;;4.83;4.20;;;11.80;99.90;;;;;;5008497;28;20437;-44
2021/05/24 02:08:21;;;;;;;4.23;3.30;;;11.80;99.90;;;;;;5010750;28;20441;-44
2021/05/24 02:10:47;;;;;;;6.10;4.00;;;11.80;99.90;;;;;;5010584;28;20460;-47
2021/05/24 02:13:14;;;;;;;3.53;2.83;;;11.80;99.90;;;;;;5002925;28;20543;-45
2021/05/24 02:15:41;;;;;;;4.60;3.43;;;11.80;99.90;;;;;;5004361;28;20438;-45
2021/05/24 02:18:08;;;;;;;4.33;3.63;;;11.80;99.90;;;;;;5008874;28;20458;-46
2021/05/24 02:20:35;;;;;;;4.63;3.57;;;11.70;99.90;;;;;;5005631;28;20453;-44
2021/05/24 02:23:03;;;;;;;4.00;3.40;;;11.80;99.90;;;;;;5007773;28;20442;-45
2021/05/24 02:25:30;;;;;;;5.10;3.70;;;11.80;99.90;;;;;;5006217;28;20441;-52
2021/05/24 02:27:56;;;;;;;3.50;3.20;;;11.70;99.90;;;;;;5012758;28;20469;-51
2021/05/24 02:30:25;;;;;;;6.13;3.40;;;11.70;99.90;;;;;;5023462;28;20472;-46
2021/05/24 02:32:51;;;;;;;4.83;3.03;;;11.60;99.90;;;;;;5037981;28;20480;-44
2021/05/24 02:35:22;;;;;;;4.47;3.70;;;11.60;99.90;;;;;;5034899;28;20468;-46
2021/05/24 02:37:48;;;;;;;3.80;3.40;;;11.50;99.90;;;;;;5031163;28;20434;-48
2021/05/24 02:40:17;;;;;;;5.33;3.47;;;11.50;99.90;;;;;;5020833;28;20442;-47
2021/05/24 02:42:43;;;;;;;3.60;3.30;;;11.50;99.90;;;;;;5029369;28;20428;-45
2021/05/24 02:45:11;;;;;;;13.70;4.00;;;11.50;99.90;;;;;;5038294;28;20442;-46
2021/05/24 02:47:38;;;;;;;5.57;3.60;;;11.40;99.90;;;;;;5035105;28;20437;-48
2021/05/24 02:50:09;;;;;;;4.40;3.37;;;11.40;99.90;;;;;;5037995;28;20441;-51
2021/05/24 02:52:35;;;;;;;4.90;3.70;;;11.40;99.90;;;;;;5038325;28;20469;-47
2021/05/24 02:55:02;;;;;;;4.90;3.97;;;11.30;99.90;;;;;;5021292;28;20542;-50
2021/05/24 02:57:28;;;;;;;4.47;3.30;;;11.30;99.90;;;;;;5019680;28;20453;-44
2021/05/24 02:59:54;;;;;;;5.03;3.60;;;11.30;99.90;;;;;;5005788;28;20566;-46
2021/05/24 03:02:25;;;;;;;4.40;3.90;;;11.30;99.90;;;;;;5004432;28;20828;-45
2021/05/24 03:04:53;;;;;;;4.40;3.57;;;11.20;99.90;;;;;;5012751;28;20496;-45
2021/05/24 03:07:19;;;;;;;4.90;3.13;;;11.20;99.90;;;;;;5015515;28;20797;-45
2021/05/24 03:09:46;;;;;;;8.03;4.43;;;11.20;99.90;;;;;;5015603;28;20462;-53
2021/05/24 03:12:12;;;;;;;4.30;3.50;;;11.20;99.90;;;;;;5015353;28;20551;-47
2021/05/24 03:14:39;;;;;;;4.47;3.67;;;11.10;99.90;;;;;;5015461;28;20507;-47
2021/05/24 03:17:05;;;;;;;4.33;3.70;;;11.10;99.90;;;;;;5015295;28;20457;-49
2021/05/24 03:19:31;;;;;;;4.13;3.30;;;11.10;99.90;;;;;;5015330;28;20453;-46
2021/05/24 03:21:58;;;;;;;4.30;3.37;;;11.10;99.90;;;;;;5015339;28;20524;-50
2021/05/24 03:24:24;;;;;;;11.60;4.43;;;11.00;99.90;;;;;;5015180;28;20468;-46
2021/05/24 03:26:50;;;;;;;5.03;4.10;;;11.00;99.90;;;;;;5014898;28;20918;-50
2021/05/24 03:29:17;;;;;;;5.03;3.40;;;11.00;99.90;;;;;;5015082;28;20456;-47
2021/05/24 03:31:43;;;;;;;3.90;3.30;;;11.00;99.90;;;;;;5014701;28;20475;-44
2021/05/24 03:34:09;;;;;;;3.80;3.30;;;11.00;99.90;;;;;;5014809;28;20531;-50
2021/05/24 03:36:35;;;;;;;7.30;3.90;;;11.00;99.90;;;;;;5015033;28;20446;-48
2021/05/24 03:39:04;;;;;;;6.23;4.30;;;11.00;99.90;;;;;;5009011;28;20504;-45
2021/05/24 03:41:30;;;;;;;4.87;3.43;;;10.90;99.90;;;;;;5013819;28;20507;-45
2021/05/24 03:43:56;;;;;;;3.50;3.20;;;11.00;99.90;;;;;;5014865;28;20453;-44
2021/05/24 03:46:22;;;;;;;4.73;3.53;;;11.00;99.90;;;;;;5014817;28;20449;-47
2021/05/24 03:48:48;;;;;;;3.63;2.93;;;11.00;99.90;;;;;;5014832;28;20447;-44
2021/05/24 03:51:14;;;;;;;7.80;3.73;;;11.00;99.90;;;;;;5014724;28;20457;-44
2021/05/24 03:53:40;;;;;;;4.73;3.20;;;11.00;99.90;;;;;;5014759;28;20476;-45
2021/05/24 03:56:07;;;;;;;4.93;3.33;;;11.00;99.90;;;;;;5014784;28;20464;-46
2021/05/24 03:58:34;;;;;;;3.90;3.50;;;11.00;99.90;;;;;;5014601;28;20479;-45
2021/05/24 04:01:00;;;;;;;4.70;3.93;;;11.00;99.90;;;;;;5014654;28;20453;-49
2021/05/24 04:03:26;;;;;;;5.90;3.90;;;11.00;99.90;;;;;;5014242;28;20473;-47
2021/05/24 04:05:59;;;;;;;5.63;3.30;;;11.00;99.90;;;;;;5014511;28;20475;-50
2021/05/24 04:08:28;;;;;;;3.40;2.93;;;11.00;99.90;;;;;;5014503;28;20457;-48
2021/05/24 04:10:57;;;;;;;4.23;3.40;;;11.10;99.90;;;;;;5014424;28;20532;-45
2021/05/24 04:13:24;;;;;;;5.37;3.13;;;11.10;99.90;;;;;;5014324;28;20481;-50
2021/05/24 04:15:53;;;;;;;3.77;2.80;;;11.10;99.90;;;;;;5014092;28;20462;-50
2021/05/24 04:18:21;;;;;;;4.10;2.83;;;11.10;99.90;;;;;;5014317;28;20526;-52
2021/05/24 04:20:48;;;;;;;5.60;3.53;;;11.20;99.90;;;;;;5014307;28;20445;-47
2021/05/24 04:23:14;;;;;;;3.40;3.10;;;11.20;99.90;;;;;;5014286;28;20492;-46
2021/05/24 04:25:40;;;;;;;3.53;3.20;;;11.20;99.90;;;;;;5014278;28;20449;-44
2021/05/24 06:24:11;;;;;;;2.50;1.70;;;13.80;99.90;;;;;;5658505;23;20534;-45
2021/05/24 06:26:37;;;;;;;2.23;1.97;;;13.90;99.90;;;;;;4977366;28;20442;-44
2021/05/24 06:29:04;;;;;;;2.53;1.73;;;14.00;99.90;;;;;;4977344;28;20493;-49
2021/05/24 06:31:30;;;;;;;2.97;2.73;;;14.10;99.90;;;;;;4977282;28;20466;-48
2021/05/24 06:33:56;;;;;;;5.80;2.17;;;14.10;99.90;;;;;;4977148;28;20894;-49
2021/05/24 06:36:23;;;;;;;3.40;2.53;;;14.20;99.90;;;;;;4977149;28;20459;-49
2021/05/24 06:38:49;;;;;;;2.57;2.37;;;14.30;99.90;;;;;;4977129;28;20454;-50
2021/05/24 06:41:16;;;;;;;3.60;2.43;;;14.50;99.90;;;;;;4977105;28;20462;-51
2021/05/24 06:43:42;;;;;;;3.43;2.43;;;14.60;99.90;;;;;;4977070;28;20455;-54
2021/05/24 06:46:08;;;;;;;2.80;2.27;;;14.60;99.90;;;;;;4977136;28;20511;-53
2021/05/24 06:48:35;;;;;;;4.73;2.90;;;14.70;99.90;;;;;;4976721;28;20452;-45
2021/05/24 06:51:01;;;;;;;3.33;2.73;;;14.80;99.90;;;;;;4976621;28;20454;-50
2021/05/24 06:53:27;;;;;;;2.37;2.07;;;15.00;99.90;;;;;;4976563;28;20479;-48
2021/05/24 06:55:54;;;;;;;3.13;2.00;;;15.10;99.90;;;;;;4976528;28;20447;-51
2021/05/24 06:58:21;;;;;;;3.47;2.47;;;15.10;99.90;;;;;;4989881;28;20462;-47
2021/05/24 07:00:47;;;;;;;3.13;2.53;;;15.20;99.90;;;;;;4996132;28;20485;-52
2021/05/24 07:03:14;;;;;;;2.80;2.20;;;15.40;99.90;;;;;;4995783;28;20944;-51
2021/05/24 07:05:40;;;;;;;2.90;2.27;;;15.50;99.90;;;;;;4996159;28;20477;-46
2021/05/24 07:08:06;;;;;;;2.30;1.70;;;15.60;99.90;;;;;;4996013;28;20461;-47
2021/05/24 07:10:32;;;;;;;2.70;2.00;;;15.80;99.90;;;;;;4995847;28;20461;-51
2021/05/24 07:12:58;;;;;;;1.80;1.70;;;16.10;99.90;;;;;;4995446;28;21024;-48
2021/05/24 07:15:25;;;;;;;2.40;1.87;;;16.60;99.90;;;;;;5015011;28;20903;-46
2021/05/24 07:17:52;;;;;;;3.97;2.13;;;18.10;99.90;;;;;;5015360;28;20503;-53
2021/05/24 07:20:18;;;;;;;2.53;2.30;;;20.10;99.90;;;;;;5015333;28;20463;-51
2021/05/24 07:22:44;;;;;;;3.87;2.20;;;22.30;99.90;;;;;;5015348;28;20441;-46
2021/05/24 07:25:11;;;;;;;5.93;2.77;;;24.40;93.60;;;;;;5015136;28;20480;-47
2021/05/24 07:27:37;;;;;;;2.67;2.40;;;25.90;76.90;;;;;;5015138;28;20465;-51
2021/05/24 07:30:05;;;;;;;3.00;1.97;;;26.50;69.50;;;;;;5014766;28;20445;-47
2021/05/24 07:32:32;;;;;;;3.20;2.37;;;27.20;61.90;;;;;;5014784;28;21054;-49
2021/05/24 07:34:58;;;;;;;2.37;2.17;;;27.90;58.60;;;;;;5015057;28;20445;-46
2021/05/24 07:37:24;;;;;;;2.87;1.63;;;28.50;55.10;;;;;;5015098;28;20452;-50
2021/05/24 07:39:50;;;;;;;1.80;1.70;;;29.10;52.70;;;;;;5015004;28;20445;-53
2021/05/24 07:42:16;;;;;;;3.43;1.83;;;29.50;50.80;;;;;;5014669;28;20488;-49
2021/05/24 07:44:42;;;;;;;2.47;1.40;;;30.10;48.80;;;;;;5014903;28;20468;-48
2021/05/24 07:47:09;;;;;;;2.07;1.87;;;30.60;46.20;;;;;;5014882;28;20453;-49
2021/05/24 07:49:36;;;;;;;5.50;1.90;;;31.00;45.30;;;;;;5014856;28;20460;-49
2021/05/24 07:52:03;;;;;;;2.33;2.13;;;31.40;45.20;;;;;;5014739;28;20445;-46
2021/05/24 07:54:29;;;;;;;2.50;1.70;;;32.00;43.20;;;;;;5014806;28;20472;-46
2021/05/24 07:56:55;;;;;;;2.50;1.90;;;31.60;41.70;;;;;;5014744;28;20441;-50
2021/05/24 07:59:21;;;;;;;1.90;1.53;;;31.20;41.60;;;;;;5014777;28;20476;-48
2021/05/24 08:01:47;;;;;;;2.00;1.80;;;31.20;41.90;;;;;;5002716;28;20478;-50
2021/05/24 08:04:14;;;;;;;1.73;1.60;;;31.50;41.50;;;;;;4995265;28;20465;-52
2021/05/24 08:06:41;;;;;;;3.43;1.70;;;31.30;40.50;;;;;;4995288;28;20453;-45
2021/05/24 08:09:07;;;;;;;2.33;1.80;;;30.70;41.00;;;;;;4995185;28;20457;-53
2021/05/24 08:11:34;;;;;;;2.83;1.63;;;30.50;41.60;;;;;;4995320;28;20454;-48
2021/05/24 08:14:00;;;;;;;5.53;5.00;;;30.50;41.20;;;;;;4994874;28;20481;-50
2021/05/24 10:15:42;;;;;;;1.90;1.50;;;24.50;44.80;;;;;;5430936;23;20476;-49
2021/05/24 10:18:09;;;;;;;1.77;1.47;;;24.20;44.60;;;;;;5003631;28;20476;-50
2021/05/24 10:20:36;;;;;;;2.33;1.47;;;24.60;44.70;;;;;;5014340;28;20507;-53
2021/05/24 10:23:02;;;;;;;2.77;2.33;;;24.70;45.00;;;;;;5016774;28;20460;-53
2021/05/24 10:25:29;;;;;;;3.60;1.70;;;24.90;45.00;;;;;;5018762;28;20514;-51
2021/05/24 10:27:59;;;;;;;2.60;1.57;;;25.30;45.30;;;;;;5013857;28;20499;-56
2021/05/24 10:30:27;;;;;;;3.00;1.50;;;25.50;44.60;;;;;;5011175;28;20806;-47
2021/05/24 10:32:55;;;;;;;2.40;1.70;;;25.80;43.30;;;;;;5016923;28;20521;-50
2021/05/24 10:35:35;;;;;;;2.40;1.93;;;25.60;43.70;;;;;;5016899;28;20454;-47
2021/05/24 10:38:21;;;;;;;1.73;1.60;;;25.60;43.30;;;;;;5016882;28;20449;-47
2021/05/24 10:40:47;;;;;;;3.77;1.93;;;25.30;43.50;;;;;;5017180;28;20424;-46
2021/05/24 10:43:16;;;;;;;1.97;1.67;;;25.10;44.60;;;;;;5016058;28;20446;-48
2021/05/24 10:45:42;;;;;;;3.17;2.00;;;24.80;43.40;;;;;;5016259;28;20545;-46
2021/05/24 10:48:17;;;;;;;2.80;2.00;;;24.60;43.50;;;;;;5016131;28;20430;-50
2021/05/24 10:50:45;;;;;;;2.80;1.97;;;24.60;45.20;;;;;;5015764;28;20903;-46
2021/05/24 10:53:22;;;;;;;3.93;1.50;;;24.40;44.80;;;;;;5017061;28;20492;-50
2021/05/24 10:55:50;;;;;;;2.37;1.50;;;24.50;45.30;;;;;;5014018;28;20509;-50
2021/05/24 13:37:19;;;;;;;2.10;1.80;;;22.50;46.90;;;;;;5241715;23;20970;-45
2021/05/24 13:39:56;;;;;;;4.27;1.63;;;22.60;48.00;;;;;;5016596;28;20447;-46
2021/05/24 13:42:22;;;;;;;2.53;1.47;;;22.80;47.50;;;;;;5016288;28;20421;-46
2021/05/24 13:44:50;;;;;;;3.40;1.60;;;22.90;48.20;;;;;;5015275;28;20949;-47
2021/05/24 13:47:19;;;;;;;1.73;1.30;;;22.80;46.60;;;;;;5014544;28;20460;-47
2021/05/24 13:57:33;;;;;;;3.00;2.40;;;22.20;47.10;;;;;;5062179;23;20990;-47
2021/05/24 13:59:59;;;;;;;2.40;1.53;;;22.20;47.30;;;;;;5016414;28;20459;-47
2021/05/24 14:02:26;;;;;;;3.57;1.30;;;22.10;47.20;;;;;;5010856;28;20946;-46
2021/05/24 14:04:52;;;;;;;1.50;1.40;;;22.00;46.90;;;;;;5015528;28;20464;-53
2021/05/24 14:07:18;;;;;;;2.37;1.27;;;22.00;47.20;;;;;;5016080;28;20445;-48
2021/05/24 14:09:44;;;;;;;2.00;1.60;;;22.00;47.80;;;;;;5017039;28;20484;-50
2021/05/24 14:12:10;;;;;;;2.33;1.67;;;22.10;47.80;;;;;;5016880;28;20453;-52
2021/05/24 14:14:37;;;;;;;1.93;1.40;;;22.20;47.40;;;;;;5016919;28;20532;-53
2021/05/24 14:17:04;;;;;;;3.23;1.83;;;22.20;46.60;;;;;;5016927;28;20507;-51
2021/05/24 14:19:30;;;;;;;2.90;1.37;;;22.20;46.80;;;;;;5016783;28;20468;-51
2021/05/24 14:21:56;;;;;;;1.53;1.30;;;22.30;47.40;;;;;;5016784;28;20449;-50
2021/05/24 14:24:22;;;;;;;2.30;1.63;;;22.40;47.50;;;;;;5016733;28;20445;-52
2021/05/24 14:26:49;;;;;;;1.80;1.40;;;22.60;47.70;;;;;;5016088;28;20441;-52
2021/05/24 14:29:16;;;;;;;2.23;1.50;;;22.50;47.30;;;;;;5016996;28;20455;-50
2021/05/24 14:31:44;;;;;;;1.80;1.60;;;22.60;48.00;;;;;;5005947;28;20465;-50
2021/05/24 14:34:10;;;;;;;1.70;1.30;;;22.60;48.00;;;;;;4997069;28;20482;-51
2021/05/24 14:36:36;;;;;;;3.00;1.70;;;22.70;47.70;;;;;;4997071;28;20516;-50
2021/05/24 14:39:04;;;;;;;3.20;1.57;;;22.70;48.20;;;;;;4996981;28;20800;-48
2021/05/24 14:41:30;;;;;;;2.03;1.77;;;22.70;48.00;;;;;;4996809;28;20456;-50
2021/05/24 14:43:56;;;;;;;2.10;1.70;;;22.70;48.10;;;;;;4996799;28;20928;-47
2021/05/24 14:46:23;;;;;;;3.10;1.37;;;22.70;48.30;;;;;;4996673;28;20816;-47
2021/05/24 14:48:51;;;;;;;2.87;1.80;;;22.70;48.40;;;;;;4996475;28;20446;-49
2021/05/24 14:51:20;;;;;;;2.70;1.40;;;22.70;48.00;;;;;;4996412;28;20529;-51
2021/05/24 14:53:46;;;;;;;1.70;1.40;;;22.70;47.70;;;;;;4996660;28;20482;-49
2021/05/24 14:56:13;;;;;;;1.70;1.30;;;22.70;47.50;;;;;;4996032;28;20485;-50
2021/05/24 14:58:42;;;;;;;2.43;1.53;;;22.80;47.10;;;;;;4996437;28;20457;-46
2021/05/24 15:01:09;;;;;;;5.20;2.60;;;22.80;46.90;;;;;;4996371;28;20446;-48
2021/05/24 15:03:35;;;;;;;2.07;1.87;;;22.90;47.50;;;;;;4996208;28;20457;-51
2021/05/24 15:06:02;;;;;;;2.27;1.80;;;22.90;46.80;;;;;;4996087;28;20446;-53
2021/05/24 15:08:28;;;;;;;2.30;1.77;;;22.90;46.50;;;;;;4996228;28;20469;-50
2021/05/24 15:10:55;;;;;;;1.80;1.50;;;22.80;46.90;;;;;;4996285;28;20450;-50
2021/05/24 15:13:21;;;;;;;2.30;1.60;;;22.70;46.50;;;;;;4996088;28;20485;-53
2021/05/24 15:15:47;;;;;;;2.30;1.70;;;22.60;46.90;;;;;;4996105;28;20971;-53
2021/05/24 15:18:17;;;;;;;1.90;1.70;;;22.60;47.20;;;;;;4996152;28;20453;-50
2021/05/24 15:20:44;;;;;;;2.30;1.90;;;22.60;46.90;;;;;;4996062;28;20724;-51
2021/05/24 15:23:11;;;;;;;2.77;1.73;;;22.70;47.30;;;;;;4996019;28;20446;-50
2021/05/24 15:25:37;;;;;;;3.30;1.83;;;22.60;47.20;;;;;;5001018;28;20568;-49
2021/05/24 15:28:06;;;;;;;3.57;2.17;;;22.50;47.00;;;;;;5015266;28;20930;-47
2021/05/24 15:30:32;;;;;;;2.37;2.07;;;22.50;47.50;;;;;;5015576;28;20471;-47
2021/05/24 15:32:58;;;;;;;14.50;2.20;;;22.50;47.20;;;;;;5015103;28;20550;-50
2021/05/24 15:35:25;;;;;;;2.40;1.67;;;22.50;47.40;;;;;;5015345;28;20441;-51
2021/05/24 15:37:51;;;;;;;3.53;3.23;;;22.40;47.00;;;;;;5014484;28;20511;-51
2021/05/24 15:40:18;;;;;;;3.10;2.30;;;22.20;47.00;;;;;;5015194;28;20449;-53
2021/05/24 15:42:45;;;;;;;3.33;2.33;;;22.10;46.90;;;;;;5015029;28;20449;-49
2021/05/24 15:45:12;;;;;;;1.30;1.20;;;22.00;47.10;;;;;;5015107;28;20440;-51
2021/05/24 15:47:38;;;;;;;2.53;1.70;;;22.00;46.70;;;;;;5014975;28;20445;-49
2021/05/24 15:50:06;;;;;;;2.80;1.70;;;21.80;46.90;;;;;;5015235;28;20449;-47
2021/05/24 15:52:32;;;;;;;2.00;1.40;;;21.80;47.00;;;;;;5015269;28;20801;-49
2021/05/24 15:54:59;;;;;;;2.20;1.30;;;21.80;46.50;;;;;;5015227;28;20441;-53
2021/05/24 15:57:26;;;;;;;2.50;1.50;;;21.80;45.40;;;;;;5014643;28;20947;-51
2021/05/24 15:59:52;;;;;;;1.67;1.23;;;21.80;45.10;;;;;;5014733;28;20461;-52
2021/05/24 16:02:19;;;;;;;2.10;1.30;;;21.70;45.00;;;;;;5014649;28;20950;-51
2021/05/24 16:04:45;;;;;;;2.80;1.87;;;21.70;45.50;;;;;;5014893;28;20449;-53
2021/05/24 16:07:11;;;;;;;2.07;1.50;;;21.60;45.80;;;;;;5015075;28;20460;-51
2021/05/24 16:09:37;;;;;;;2.30;1.80;;;21.60;46.50;;;;;;5015063;28;20458;-51
2021/05/24 16:12:04;;;;;;;3.07;2.23;;;21.60;47.30;;;;;;5014876;28;20784;-52
2021/05/24 16:14:31;;;;;;;3.77;1.97;;;21.60;47.70;;;;;;5014600;28;20480;-48
2021/05/24 16:16:57;;;;;;;4.23;2.63;;;21.60;47.90;;;;;;5014818;28;20493;-50
2021/05/24 16:19:28;;;;;;;3.60;2.63;;;21.60;48.00;;;;;;5014796;28;20445;-50
2021/05/24 16:21:56;;;;;;;5.23;2.87;;;21.60;48.00;;;;;;5014367;28;20424;-52
2021/05/24 16:24:37;;;;;;;4.13;2.03;;;21.50;48.20;;;;;;5014713;28;20449;-49
2021/05/24 16:27:04;;;;;;;1.93;1.63;;;21.50;48.50;;;;;;5011460;28;20464;-50
2021/05/24 16:29:31;;;;;;;4.93;2.93;;;21.40;48.70;;;;;;5009554;28;20472;-51
2021/05/24 16:31:57;;;;;;;5.00;2.43;;;21.40;49.10;;;;;;4997030;28;20461;-51
2021/05/24 16:34:23;;;;;;;3.70;3.30;;;21.50;49.00;;;;;;4994926;28;20486;-52
2021/05/24 16:36:51;;;;;;;3.17;2.30;;;21.60;49.10;;;;;;4994757;28;20449;-54
2021/05/24 16:39:17;;;;;;;3.10;1.97;;;21.60;49.20;;;;;;4994969;28;20454;-49
2021/05/24 16:41:43;;;;;;;3.17;1.87;;;21.70;49.70;;;;;;4994584;28;20454;-49
2021/05/24 16:44:09;;;;;;;3.67;2.57;;;21.60;49.20;;;;;;4994947;28;20454;-49
2021/05/24 16:46:36;;;;;;;3.27;1.90;;;21.70;49.70;;;;;;4994976;28;20454;-48
2021/05/24 16:49:03;;;;;;;2.40;1.67;;;21.70;49.90;;;;;;4997063;28;20784;-51
2021/05/24 16:51:29;;;;;;;2.93;2.37;;;21.80;50.10;;;;;;5001213;28;20473;-52
2021/05/24 16:53:56;;;;;;;3.10;2.80;;;21.80;50.20;;;;;;5002435;28;20473;-51
2021/05/24 16:56:23;;;;;;;7.90;2.50;;;21.90;50.40;;;;;;4998611;28;20870;-46
2021/05/24 16:58:49;;;;;;;6.10;2.27;;;22.00;50.70;;;;;;4998808;28;20586;-51
2021/05/24 17:01:15;;;;;;;2.20;1.50;;;21.90;50.90;;;;;;4998791;28;20456;-55
2021/05/24 17:03:42;;;;;;;2.67;1.77;;;21.80;50.90;;;;;;4998714;28;20446;-51
2021/05/24 17:06:09;;;;;;;3.30;1.80;;;21.70;51.00;;;;;;4998652;28;20453;-45
2021/05/24 17:08:36;;;;;;;2.67;2.20;;;21.60;52.00;;;;;;4998643;28;20473;-47
2021/05/24 17:11:02;;;;;;;2.07;1.87;;;21.60;51.90;;;;;;4998771;28;20462;-49
2021/05/24 17:13:28;;;;;;;3.17;2.00;;;21.60;52.00;;;;;;4998562;28;20481;-49
2021/05/24 17:15:55;;;;;;;1.90;1.67;;;21.50;52.10;;;;;;5002574;28;20928;-47
2021/05/24 17:18:21;;;;;;;2.60;2.07;;;21.50;52.30;;;;;;4997861;28;20971;-51
2021/05/24 17:20:48;;;;;;;3.10;2.37;;;21.50;52.60;;;;;;4997728;28;20469;-51
2021/05/24 17:23:14;;;;;;;2.50;1.80;;;21.50;52.80;;;;;;4997922;28;20539;-46
2021/05/24 17:25:41;;;;;;;2.07;1.87;;;21.40;52.90;;;;;;4997865;28;20461;-49
2021/05/24 17:28:08;;;;;;;2.10;1.57;;;21.40;53.20;;;;;;4997849;28;20450;-49
2021/05/24 17:30:36;;;;;;;4.03;1.87;;;21.30;53.50;;;;;;4997870;28;20553;-47
2021/05/24 17:33:04;;;;;;;4.80;2.33;;;21.20;53.70;;;;;;4997633;28;20597;-47
2021/05/24 17:35:31;;;;;;;3.63;3.07;;;21.20;53.70;;;;;;4997837;28;20454;-51
2021/05/24 17:37:58;;;;;;;2.13;1.90;;;21.00;53.70;;;;;;4997447;28;20445;-48
2021/05/24 17:40:27;;;;;;;2.70;1.90;;;21.00;54.10;;;;;;4997703;28;20446;-52
2021/05/24 17:42:53;;;;;;;3.37;1.80;;;20.90;54.10;;;;;;4997579;28;20454;-51
2021/05/24 17:45:24;;;;;;;2.37;1.70;;;20.90;54.30;;;;;;4997551;28;20458;-51
2021/05/24 17:47:51;;;;;;;3.50;2.23;;;20.90;54.50;;;;;;4997588;28;20434;-49
2021/05/24 17:50:20;;;;;;;2.00;1.80;;;20.90;54.80;;;;;;4997746;28;20449;-46
2021/05/24 17:52:50;;;;;;;2.17;1.70;;;20.90;54.90;;;;;;4997341;28;20488;-51
2021/05/24 17:55:19;;;;;;;6.83;2.13;;;20.90;55.10;;;;;;4997193;28;20453;-50
2021/05/24 17:57:46;;;;;;;3.60;2.07;;;20.80;55.30;;;;;;4997315;28;20457;-52
2021/05/24 18:00:13;;;;;;;3.43;2.10;;;20.80;55.50;;;;;;4996213;28;20457;-49
2021/05/24 18:02:40;;;;;;;2.70;2.00;;;20.70;56.30;;;;;;4997260;28;20898;-47
2021/05/24 18:05:07;;;;;;;3.70;2.70;;;20.70;56.40;;;;;;4996273;28;20537;-47
2021/05/24 18:07:34;;;;;;;2.50;2.10;;;20.60;56.00;;;;;;4996681;28;20442;-47
2021/05/24 18:10:00;;;;;;;4.33;3.23;;;20.60;56.10;;;;;;4997205;28;20537;-46
2021/05/24 18:12:27;;;;;;;5.47;3.70;;;20.60;56.10;;;;;;4996873;28;20488;-48
2021/05/24 18:14:54;;;;;;;5.67;3.00;;;20.60;57.10;;;;;;4998291;28;20516;-45
2021/05/24 18:17:20;;;;;;;3.70;2.50;;;20.50;57.20;;;;;;4997359;28;20465;-46
2021/05/24 18:19:46;;;;;;;5.23;2.43;;;20.60;57.20;;;;;;4997477;28;20446;-50
2021/05/24 18:22:15;;;;;;;2.53;2.20;;;20.60;57.30;;;;;;4998053;28;20535;-51
2021/05/24 18:24:41;;;;;;;3.70;2.50;;;20.60;57.50;;;;;;4998305;28;20560;-53
2021/05/24 18:27:08;;;;;;;5.00;3.90;;;20.50;57.40;;;;;;4997487;28;20450;-53
2021/05/24 18:29:35;;;;;;;3.53;2.57;;;20.50;57.90;;;;;;4996832;28;20457;-53
2021/05/24 18:32:01;;;;;;;15.30;6.57;;;20.50;57.90;;;;;;4996751;28;20441;-52
2021/05/24 18:34:27;;;;;;;6.97;3.20;;;20.50;58.50;;;;;;4996633;28;20581;-48
2021/05/24 18:36:54;;;;;;;3.93;3.13;;;20.40;59.20;;;;;;4996853;28;20446;-49
2021/05/24 18:39:20;;;;;;;10.40;3.33;;;20.40;59.40;;;;;;4996990;28;20517;-52
2021/05/24 18:41:46;;;;;;;3.70;3.20;;;20.40;59.80;;;;;;4997063;28;20450;-48
2021/05/24 18:44:13;;;;;;;7.93;3.60;;;20.30;59.30;;;;;;4996877;28;20784;-52
2021/05/24 18:46:40;;;;;;;4.67;2.60;;;20.30;60.20;;;;;;4996659;28;20456;-49
2021/05/24 18:49:06;;;;;;;6.60;3.60;;;20.30;59.90;;;;;;4996858;28;20446;-49
2021/05/24 18:51:32;;;;;;;4.30;2.43;;;20.30;60.40;;;;;;4997448;28;20454;-53
2021/05/24 18:53:59;;;;;;;4.07;2.10;;;20.20;60.70;;;;;;4997327;28;20544;-51
2021/05/24 18:56:25;;;;;;;12.63;3.93;;;20.20;60.60;;;;;;4996464;28;20549;-48
2021/05/24 18:58:51;;;;;;;2.40;2.00;;;20.20;60.60;;;;;;4996813;28;20446;-50
2021/05/24 19:01:19;;;;;;;3.50;3.20;;;20.20;61.90;;;;;;4996141;28;20940;-49
2021/05/24 19:03:52;;;;;;;5.70;2.60;;;20.20;62.40;;;;;;4996531;28;20458;-52
2021/05/24 19:06:21;;;;;;;6.90;3.40;;;20.10;61.70;;;;;;4996220;28;20505;-51
2021/05/24 19:08:50;;;;;;;3.90;3.00;;;20.10;63.30;;;;;;4996053;28;20488;-49
2021/05/24 19:11:17;;;;;;;11.40;6.27;;;20.00;62.40;;;;;;4995687;28;20493;-53
2021/05/24 19:13:46;;;;;;;6.00;4.20;;;20.00;64.60;;;;;;4995755;28;20548;-51
2021/05/24 19:16:13;;;;;;;4.63;3.30;;;20.00;64.60;;;;;;4995582;28;20454;-50
2021/05/24 19:18:39;;;;;;;5.43;3.30;;;20.00;63.70;;;;;;4995869;28;20450;-53
2021/05/24 19:21:07;;;;;;;6.13;3.20;;;19.90;63.30;;;;;;4995758;28;20445;-50
2021/05/24 19:23:34;;;;;;;4.70;3.00;;;19.90;65.90;;;;;;4995486;28;20434;-51
2021/05/24 19:26:01;;;;;;;3.50;2.60;;;19.90;64.70;;;;;;4995451;28;20983;-50